createdAt,value
2019-06-15T00:00:10.945Z,15.86
2019-06-15T00:01:10.964Z,15.72
2019-06-15T00:02:10.920Z,15.75
2019-06-15T00:03:10.926Z,15.86
2019-06-15T00:04:10.876Z,15.76
2019-06-15T00:05:10.860Z,15.79
2019-06-15T00:06:10.842Z,16.00
2019-06-15T00:07:10.829Z,15.78
2019-06-15T00:08:10.815Z,15.75
2019-06-15T00:09:10.803Z,15.75
2019-06-15T00:10:10.797Z,15.70
2019-06-15T00:11:10.762Z,15.64
2019-06-15T00:12:10.759Z,15.61
2019-06-15T00:13:10.725Z,15.64
2019-06-15T00:14:10.753Z,15.54
2019-06-15T00:15:10.711Z,15.57
2019-06-15T00:16:10.677Z,15.63
2019-06-15T00:17:10.663Z,15.74
2019-06-15T00:18:10.655Z,15.74
2019-06-15T00:19:10.644Z,15.72
2019-06-15T00:20:10.609Z,15.75
2019-06-15T00:21:10.587Z,15.60
2019-06-15T00:22:10.583Z,15.59
2019-06-15T00:23:10.561Z,15.67
2019-06-15T00:24:10.543Z,15.60
2019-06-15T00:25:10.517Z,15.64
2019-06-15T00:26:10.500Z,15.64
2019-06-15T00:27:10.528Z,15.61
2019-06-15T00:28:10.472Z,15.60
2019-06-15T00:29:10.458Z,15.66
2019-06-15T00:30:10.442Z,15.68
2019-06-15T00:31:10.414Z,15.74
2019-06-15T00:32:10.405Z,15.76
2019-06-15T00:33:10.385Z,15.74
2019-06-15T00:34:10.370Z,15.75
2019-06-15T00:35:10.353Z,15.75
2019-06-15T00:36:10.337Z,15.74
2019-06-15T00:37:10.315Z,15.63
2019-06-15T00:38:10.326Z,15.52
2019-06-15T00:39:10.290Z,15.59
2019-06-15T00:40:10.339Z,15.59
2019-06-15T00:41:10.245Z,15.52
2019-06-15T00:42:10.233Z,15.52
2019-06-15T00:43:10.240Z,15.54
2019-06-15T00:44:10.198Z,15.59
2019-06-15T00:45:10.181Z,15.63
2019-06-15T00:46:10.169Z,15.70
2019-06-15T00:47:10.146Z,15.64
2019-06-15T00:48:10.127Z,15.61
2019-06-15T00:49:10.109Z,15.66
2019-06-15T00:50:10.127Z,15.64
2019-06-15T00:51:10.077Z,15.64
2019-06-15T00:52:10.087Z,15.60
2019-06-15T00:53:10.038Z,15.61
2019-06-15T00:54:10.029Z,15.59
2019-06-15T00:55:10.018Z,15.51
2019-06-15T00:56:09.992Z,15.56
2019-06-15T00:57:09.975Z,15.45
2019-06-15T00:58:09.955Z,15.43
2019-06-15T00:59:09.943Z,15.42
2019-06-15T01:00:09.923Z,15.38
2019-06-15T01:01:09.910Z,15.43
2019-06-15T01:02:09.903Z,15.38
2019-06-15T01:03:09.876Z,15.45
2019-06-15T01:04:09.860Z,15.45
2019-06-15T01:05:09.834Z,15.43
2019-06-15T01:06:09.828Z,15.56
2019-06-15T01:07:09.806Z,15.51
2019-06-15T01:08:09.787Z,15.51
2019-06-15T01:09:09.775Z,15.49
2019-06-15T01:10:09.752Z,15.42
2019-06-15T01:11:09.729Z,15.46
2019-06-15T01:12:09.720Z,15.42
2019-06-15T01:13:09.700Z,15.41
2019-06-15T01:14:09.690Z,15.30
2019-06-15T01:15:09.664Z,15.23
2019-06-15T01:16:09.657Z,15.17
2019-06-15T01:17:09.646Z,15.17
2019-06-15T01:18:09.635Z,15.15
2019-06-15T01:19:09.600Z,15.13
2019-06-15T01:20:09.591Z,15.11
2019-06-15T01:21:09.562Z,15.06
2019-06-15T01:22:09.549Z,15.02
2019-06-15T01:23:09.533Z,15.06
2019-06-15T01:24:09.530Z,14.93
2019-06-15T01:25:09.550Z,15.08
2019-06-15T01:26:09.658Z,14.94
2019-06-15T01:27:09.458Z,14.98
2019-06-15T01:28:09.442Z,14.95
2019-06-15T01:29:09.440Z,14.83
2019-06-15T01:30:09.407Z,14.90
2019-06-15T01:31:09.387Z,14.93
2019-06-15T01:32:09.398Z,14.99
2019-06-15T01:33:09.384Z,14.94
2019-06-15T01:34:09.337Z,14.90
2019-06-15T01:35:09.320Z,14.94
2019-06-15T01:36:09.307Z,14.86
2019-06-15T01:37:09.312Z,14.72
2019-06-15T01:38:09.291Z,14.71
2019-06-15T01:39:09.246Z,14.71
2019-06-15T01:40:09.234Z,14.68
2019-06-15T01:41:09.229Z,14.65
2019-06-15T01:42:09.234Z,14.64
2019-06-15T01:43:09.189Z,14.62
2019-06-15T01:44:09.159Z,14.52
2019-06-15T01:45:09.150Z,14.50
2019-06-15T01:46:09.124Z,14.46
2019-06-15T01:47:09.124Z,14.39
2019-06-15T01:48:09.098Z,14.43
2019-06-15T01:49:09.078Z,14.28
2019-06-15T01:50:09.070Z,14.32
2019-06-15T01:51:09.041Z,14.35
2019-06-15T01:52:09.035Z,14.24
2019-06-15T01:53:09.001Z,14.32
2019-06-15T01:54:08.990Z,14.50
2019-06-15T01:55:20.570Z,14.52
2019-06-15T01:56:08.993Z,14.54
2019-06-15T01:57:08.938Z,14.61
2019-06-15T01:58:08.926Z,14.52
2019-06-15T01:59:08.899Z,14.52
2019-06-15T02:00:08.884Z,14.57
2019-06-15T02:01:08.861Z,14.43
2019-06-15T02:02:08.861Z,14.29
2019-06-15T02:03:08.830Z,14.32
2019-06-15T02:04:08.816Z,14.25
2019-06-15T02:05:08.778Z,14.25
2019-06-15T02:06:08.771Z,14.20
2019-06-15T02:07:08.756Z,14.24
2019-06-15T02:08:08.734Z,14.28
2019-06-15T02:09:08.721Z,14.53
2019-06-15T02:10:08.705Z,14.52
2019-06-15T02:11:08.695Z,14.50
2019-06-15T02:12:08.666Z,14.56
2019-06-15T02:13:08.644Z,14.54
2019-06-15T02:14:08.628Z,14.54
2019-06-15T02:15:08.619Z,14.61
2019-06-15T02:16:08.586Z,14.52
2019-06-15T02:17:08.574Z,14.61
2019-06-15T02:18:08.554Z,14.60
2019-06-15T02:19:08.551Z,14.74
2019-06-15T02:20:08.524Z,14.64
2019-06-15T02:21:08.505Z,14.61
2019-06-15T02:22:08.568Z,14.62
2019-06-15T02:23:08.470Z,14.47
2019-06-15T02:24:08.451Z,14.38
2019-06-15T02:25:08.424Z,14.37
2019-06-15T02:26:08.419Z,14.35
2019-06-15T02:27:08.406Z,14.29
2019-06-15T02:28:08.377Z,14.38
2019-06-15T02:29:08.353Z,14.29
2019-06-15T02:30:08.341Z,14.31
2019-06-15T02:31:08.347Z,14.25
2019-06-15T02:32:08.300Z,14.28
2019-06-15T02:33:08.289Z,14.19
2019-06-15T02:34:08.262Z,14.14
2019-06-15T02:35:08.243Z,14.02
2019-06-15T02:36:08.225Z,14.16
2019-06-15T02:37:08.210Z,14.10
2019-06-15T02:38:08.188Z,14.27
2019-06-15T02:39:08.180Z,14.32
2019-06-15T02:40:08.156Z,14.38
2019-06-15T02:41:08.141Z,14.27
2019-06-15T02:42:08.123Z,14.25
2019-06-15T02:43:08.097Z,14.19
2019-06-15T02:44:08.084Z,14.21
2019-06-15T02:45:08.068Z,14.12
2019-06-15T02:46:08.049Z,14.17
2019-06-15T02:47:08.027Z,14.16
2019-06-15T02:48:08.014Z,14.14
2019-06-15T02:49:08.019Z,14.09
2019-06-15T02:50:07.972Z,14.14
2019-06-15T02:51:07.960Z,14.07
2019-06-15T02:52:07.941Z,14.02
2019-06-15T02:53:07.921Z,14.07
2019-06-15T02:54:07.902Z,14.06
2019-06-15T02:55:07.882Z,14.04
2019-06-15T02:56:07.866Z,14.02
2019-06-15T02:57:07.841Z,14.10
2019-06-15T02:58:07.826Z,14.10
2019-06-15T02:59:07.806Z,14.17
2019-06-15T03:00:07.836Z,14.25
2019-06-15T03:01:07.777Z,14.25
2019-06-15T03:02:07.758Z,14.25
2019-06-15T03:03:07.736Z,14.24
2019-06-15T03:04:07.723Z,14.24
2019-06-15T03:05:07.696Z,14.27
2019-06-15T03:06:07.676Z,14.24
2019-06-15T03:07:07.677Z,14.24
2019-06-15T03:08:07.645Z,14.17
2019-06-15T03:09:07.621Z,14.16
2019-06-15T03:10:07.617Z,14.14
2019-06-15T03:11:07.586Z,14.16
2019-06-15T03:12:07.578Z,14.14
2019-06-15T03:13:07.555Z,14.24
2019-06-15T03:14:07.542Z,14.21
2019-06-15T03:15:07.527Z,14.24
2019-06-15T03:16:07.494Z,14.19
2019-06-15T03:17:07.486Z,14.32
2019-06-15T03:18:07.464Z,14.38
2019-06-15T03:19:07.447Z,14.21
2019-06-15T03:20:07.440Z,14.35
2019-06-15T03:21:07.421Z,14.31
2019-06-15T03:22:07.389Z,14.27
2019-06-15T03:23:07.364Z,14.28
2019-06-15T03:24:07.351Z,14.34
2019-06-15T03:25:07.341Z,14.32
2019-06-15T03:26:07.327Z,14.29
2019-06-15T03:27:07.299Z,14.25
2019-06-15T03:28:07.286Z,14.38
2019-06-15T03:29:07.263Z,14.29
2019-06-15T03:30:07.247Z,14.38
2019-06-15T03:31:07.223Z,14.46
2019-06-15T03:32:07.210Z,14.47
2019-06-15T03:33:07.184Z,14.28
2019-06-15T03:34:07.185Z,14.31
2019-06-15T03:35:07.151Z,14.28
2019-06-15T03:36:07.145Z,14.28
2019-06-15T03:37:07.124Z,14.24
2019-06-15T03:38:07.111Z,14.14
2019-06-15T03:39:07.077Z,14.19
2019-06-15T03:40:07.057Z,14.17
2019-06-15T03:41:07.068Z,13.98
2019-06-15T03:42:07.033Z,14.06
2019-06-15T03:43:07.010Z,14.06
2019-06-15T03:44:06.983Z,14.13
2019-06-15T03:45:06.972Z,14.01
2019-06-15T03:46:06.956Z,13.95
2019-06-15T03:47:06.929Z,14.10
2019-06-15T03:48:06.923Z,14.14
2019-06-15T03:49:06.923Z,14.09
2019-06-15T03:50:06.877Z,14.17
2019-06-15T03:51:06.858Z,14.27
2019-06-15T03:52:06.846Z,14.21
2019-06-15T03:53:06.819Z,14.31
2019-06-15T03:54:06.801Z,14.31
2019-06-15T03:55:06.798Z,14.31
2019-06-15T03:56:20.625Z,14.31
2019-06-15T03:57:06.746Z,14.31
2019-06-15T03:58:06.730Z,14.37
2019-06-15T03:59:06.716Z,14.43
2019-06-15T04:00:06.695Z,14.52
2019-06-15T04:01:06.701Z,14.60
2019-06-15T04:02:06.672Z,14.72
2019-06-15T04:03:06.653Z,14.78
2019-06-15T04:04:06.627Z,14.84
2019-06-15T04:05:06.609Z,14.84
2019-06-15T04:06:06.597Z,14.87
2019-06-15T04:07:06.579Z,14.74
2019-06-15T04:08:06.553Z,14.72
2019-06-15T04:09:06.529Z,14.83
2019-06-15T04:10:06.508Z,14.88
2019-06-15T04:11:06.492Z,15.03
2019-06-15T04:12:06.473Z,15.09
2019-06-15T04:13:06.460Z,15.09
2019-06-15T04:14:06.441Z,15.27
2019-06-15T04:15:06.419Z,15.27
2019-06-15T04:16:06.403Z,15.46
2019-06-15T04:17:06.402Z,15.46
2019-06-15T04:18:06.367Z,15.49
2019-06-15T04:19:06.369Z,15.56
2019-06-15T04:20:06.329Z,15.64
2019-06-15T04:21:06.313Z,15.61
2019-06-15T04:22:06.300Z,15.68
2019-06-15T04:23:06.279Z,15.70
2019-06-15T04:24:06.259Z,15.64
2019-06-15T04:25:06.239Z,15.61
2019-06-15T04:26:06.240Z,15.66
2019-06-15T04:27:06.212Z,15.61
2019-06-15T04:28:06.212Z,15.66
2019-06-15T04:29:06.182Z,15.79
2019-06-15T04:30:06.159Z,15.89
2019-06-15T04:31:06.143Z,15.88
2019-06-15T04:32:06.144Z,15.85
2019-06-15T04:33:06.100Z,15.86
2019-06-15T04:34:06.089Z,15.94
2019-06-15T04:35:06.076Z,15.99
2019-06-15T04:36:06.051Z,16.01
2019-06-15T04:37:06.033Z,16.01
2019-06-15T04:38:06.014Z,16.06
2019-06-15T04:39:06.028Z,16.12
2019-06-15T04:40:05.982Z,16.03
2019-06-15T04:41:05.983Z,16.09
2019-06-15T04:42:05.957Z,16.16
2019-06-15T04:43:05.934Z,16.30
2019-06-15T04:44:05.914Z,16.35
2019-06-15T04:45:05.900Z,16.41
2019-06-15T04:46:05.945Z,16.38
2019-06-15T04:47:05.872Z,16.45
2019-06-15T04:48:05.868Z,16.58
2019-06-15T04:49:05.826Z,16.77
2019-06-15T04:50:05.815Z,16.95
2019-06-15T04:51:05.802Z,17.06
2019-06-15T04:52:05.775Z,17.10
2019-06-15T04:53:05.765Z,17.14
2019-06-15T04:54:05.752Z,17.15
2019-06-15T04:55:05.737Z,17.28
2019-06-15T04:56:05.718Z,17.46
2019-06-15T04:57:05.705Z,17.47
2019-06-15T04:58:05.683Z,17.43
2019-06-15T04:59:05.683Z,17.33
2019-06-15T05:00:05.645Z,17.28
2019-06-15T05:01:05.645Z,17.25
2019-06-15T05:02:05.609Z,17.29
2019-06-15T05:03:05.609Z,17.32
2019-06-15T05:04:05.582Z,17.40
2019-06-15T05:05:05.561Z,17.43
2019-06-15T05:06:05.552Z,17.40
2019-06-15T05:07:05.533Z,17.47
2019-06-15T05:08:05.518Z,17.41
2019-06-15T05:09:05.506Z,17.53
2019-06-15T05:10:05.488Z,17.64
2019-06-15T05:11:05.479Z,17.64
2019-06-15T05:12:05.461Z,17.66
2019-06-15T05:13:05.440Z,17.59
2019-06-15T05:14:05.455Z,17.71
2019-06-15T05:15:05.415Z,17.74
2019-06-15T05:16:05.407Z,17.82
2019-06-15T05:17:05.375Z,17.88
2019-06-15T05:18:05.364Z,17.97
2019-06-15T05:19:05.345Z,18.19
2019-06-15T05:20:05.327Z,18.18
2019-06-15T05:21:05.325Z,18.31
2019-06-15T05:22:05.291Z,18.49
2019-06-15T05:23:05.279Z,18.50
2019-06-15T05:24:08.451Z,18.64
2019-06-15T05:25:05.246Z,18.83
2019-06-15T05:26:05.252Z,18.97
2019-06-15T05:27:06.600Z,19.02
2019-06-15T05:28:05.205Z,19.10
2019-06-15T05:29:05.190Z,19.24
2019-06-15T05:30:05.189Z,19.42
2019-06-15T05:31:05.166Z,19.51
2019-06-15T05:32:05.151Z,19.63
2019-06-15T05:33:05.142Z,19.75
2019-06-15T05:34:05.147Z,19.79
2019-06-15T05:35:05.106Z,19.98
2019-06-15T05:36:05.110Z,19.94
2019-06-15T05:37:05.075Z,19.94
2019-06-15T05:38:05.084Z,19.88
2019-06-15T05:39:05.052Z,20.00
2019-06-15T05:40:05.053Z,20.00
2019-06-15T05:41:05.029Z,19.90
2019-06-15T05:42:05.011Z,19.90
2019-06-15T05:43:05.001Z,19.88
2019-06-15T05:44:04.995Z,19.91
2019-06-15T05:45:04.979Z,19.87
2019-06-15T05:46:04.983Z,19.83
2019-06-15T05:47:04.941Z,19.90
2019-06-15T05:48:04.938Z,19.91
2019-06-15T05:49:04.923Z,19.91
2019-06-15T05:50:04.901Z,19.79
2019-06-15T05:51:04.892Z,19.78
2019-06-15T05:52:04.883Z,19.84
2019-06-15T05:53:04.869Z,19.94
2019-06-15T05:54:04.859Z,20.03
2019-06-15T05:55:04.843Z,20.10
2019-06-15T05:56:04.830Z,20.25
2019-06-15T05:57:04.811Z,20.31
2019-06-15T05:58:04.801Z,20.43
2019-06-15T05:59:04.831Z,20.27
2019-06-15T06:00:04.774Z,20.25
2019-06-15T06:01:04.764Z,20.33
2019-06-15T06:02:04.755Z,20.24
2019-06-15T06:03:04.756Z,20.12
2019-06-15T06:04:04.722Z,20.23
2019-06-15T06:05:04.714Z,20.15
2019-06-15T06:06:04.708Z,20.02
2019-06-15T06:07:04.682Z,19.93
2019-06-15T06:08:04.680Z,19.80
2019-06-15T06:09:04.653Z,19.69
2019-06-15T06:10:04.647Z,19.70
2019-06-15T06:11:04.636Z,19.54
2019-06-15T06:12:04.618Z,19.63
2019-06-15T06:13:04.602Z,19.51
2019-06-15T06:14:04.594Z,19.43
2019-06-15T06:15:04.570Z,19.61
2019-06-15T06:16:04.566Z,19.69
2019-06-15T06:17:04.552Z,19.66
2019-06-15T06:18:04.535Z,19.63
2019-06-15T06:19:04.536Z,19.46
2019-06-15T06:20:04.511Z,19.47
2019-06-15T06:21:04.504Z,19.51
2019-06-15T06:22:04.479Z,19.39
2019-06-15T06:23:04.463Z,19.25
2019-06-15T06:24:04.451Z,19.29
2019-06-15T06:25:04.440Z,19.33
2019-06-15T06:26:04.432Z,19.33
2019-06-15T06:27:04.415Z,19.38
2019-06-15T06:28:04.402Z,19.47
2019-06-15T06:29:04.387Z,19.51
2019-06-15T06:30:04.370Z,19.46
2019-06-15T06:31:04.355Z,19.51
2019-06-15T06:32:04.345Z,19.50
2019-06-15T06:33:04.329Z,19.72
2019-06-15T06:34:04.323Z,19.87
2019-06-15T06:35:04.303Z,19.94
2019-06-15T06:36:06.226Z,20.03
2019-06-15T06:37:04.277Z,20.12
2019-06-15T06:38:04.258Z,20.28
2019-06-15T06:39:04.262Z,20.35
2019-06-15T06:40:04.239Z,20.38
2019-06-15T06:41:04.249Z,20.65
2019-06-15T06:42:04.204Z,20.83
2019-06-15T06:43:04.207Z,21.02
2019-06-15T06:44:04.178Z,21.13
2019-06-15T06:45:04.174Z,21.21
2019-06-15T06:46:04.164Z,21.23
2019-06-15T06:47:04.146Z,21.32
2019-06-15T06:48:04.137Z,21.48
2019-06-15T06:49:04.120Z,21.51
2019-06-15T06:50:04.103Z,21.34
2019-06-15T06:51:04.098Z,21.60
2019-06-15T06:52:04.080Z,21.67
2019-06-15T06:53:04.074Z,21.72
2019-06-15T06:54:04.053Z,21.76
2019-06-15T06:55:04.047Z,21.61
2019-06-15T06:56:04.047Z,21.51
2019-06-15T06:57:04.025Z,21.35
2019-06-15T06:58:04.034Z,21.30
2019-06-15T06:59:04.000Z,21.42
2019-06-15T07:00:04.013Z,21.61
2019-06-15T07:01:03.967Z,21.60
2019-06-15T07:02:03.964Z,21.64
2019-06-15T07:03:03.964Z,21.56
2019-06-15T07:04:03.933Z,21.72
2019-06-15T07:05:03.919Z,21.59
2019-06-15T07:06:03.919Z,21.63
2019-06-15T07:07:03.899Z,21.61
2019-06-15T07:08:03.887Z,21.64
2019-06-15T07:09:03.871Z,21.69
2019-06-15T07:10:03.865Z,21.63
2019-06-15T07:11:03.847Z,21.64
2019-06-15T07:12:03.835Z,21.57
2019-06-15T07:13:03.827Z,21.59
2019-06-15T07:14:03.807Z,21.54
2019-06-15T07:15:04.868Z,21.63
2019-06-15T07:16:03.784Z,21.74
2019-06-15T07:17:03.776Z,22.01
2019-06-15T07:18:03.759Z,22.31
2019-06-15T07:19:03.746Z,22.20
2019-06-15T07:20:03.740Z,22.46
2019-06-15T07:21:03.727Z,22.50
2019-06-15T07:22:03.724Z,22.49
2019-06-15T07:23:03.704Z,22.35
2019-06-15T07:24:03.704Z,22.49
2019-06-15T07:25:03.674Z,22.50
2019-06-15T07:26:03.673Z,22.38
2019-06-15T07:27:03.655Z,22.28
2019-06-15T07:28:08.158Z,22.17
2019-06-15T07:29:03.632Z,22.09
2019-06-15T07:30:03.617Z,22.01
2019-06-15T07:31:03.605Z,21.92
2019-06-15T07:32:03.618Z,22.09
2019-06-15T07:33:03.588Z,22.19
2019-06-15T07:34:03.571Z,22.32
2019-06-15T07:35:03.566Z,22.49
2019-06-15T07:36:03.554Z,23.01
2019-06-15T07:37:03.539Z,23.09
2019-06-15T07:38:03.525Z,23.31
2019-06-15T07:39:03.519Z,23.38
2019-06-15T07:40:03.506Z,23.38
2019-06-15T07:41:03.500Z,23.27
2019-06-15T07:42:03.643Z,23.27
2019-06-15T07:43:03.474Z,23.08
2019-06-15T07:44:03.465Z,23.08
2019-06-15T07:45:03.460Z,22.65
2019-06-15T07:46:03.463Z,22.43
2019-06-15T07:47:03.444Z,22.31
2019-06-15T07:48:03.430Z,22.37
2019-06-15T07:49:05.059Z,22.02
2019-06-15T07:50:03.401Z,21.85
2019-06-15T07:51:03.398Z,21.69
2019-06-15T07:52:03.476Z,21.60
2019-06-15T07:53:03.368Z,21.53
2019-06-15T07:54:03.365Z,21.45
2019-06-15T07:55:03.356Z,21.42
2019-06-15T07:56:03.372Z,21.46
2019-06-15T07:57:03.335Z,21.42
2019-06-15T07:58:03.323Z,21.39
2019-06-15T07:59:03.304Z,21.24
2019-06-15T08:00:03.302Z,21.19
2019-06-15T08:01:03.282Z,21.09
2019-06-15T08:02:03.280Z,21.05
2019-06-15T08:03:03.267Z,21.24
2019-06-15T08:04:03.261Z,21.27
2019-06-15T08:05:03.238Z,21.06
2019-06-15T08:06:03.241Z,20.93
2019-06-15T08:07:03.271Z,21.01
2019-06-15T08:08:03.206Z,21.17
2019-06-15T08:09:03.206Z,21.26
2019-06-15T08:10:03.193Z,21.63
2019-06-15T08:11:03.178Z,22.13
2019-06-15T08:12:03.162Z,22.09
2019-06-15T08:13:03.145Z,22.54
2019-06-15T08:14:03.142Z,22.93
2019-06-15T08:15:03.123Z,23.39
2019-06-15T08:16:03.122Z,23.87
2019-06-15T08:17:03.112Z,23.39
2019-06-15T08:18:03.098Z,22.82
2019-06-15T08:19:03.079Z,22.60
2019-06-15T08:20:03.070Z,22.65
2019-06-15T08:21:03.066Z,22.62
2019-06-15T08:22:03.049Z,22.54
2019-06-15T08:23:03.044Z,22.64
2019-06-15T08:24:04.882Z,22.57
2019-06-15T08:25:03.025Z,22.56
2019-06-15T08:26:03.005Z,22.86
2019-06-15T08:27:02.999Z,23.24
2019-06-15T08:28:02.986Z,23.12
2019-06-15T08:29:02.986Z,23.19
2019-06-15T08:30:02.974Z,23.23
2019-06-15T08:31:02.971Z,23.29
2019-06-15T08:32:02.960Z,23.82
2019-06-15T08:33:02.941Z,23.70
2019-06-15T08:34:02.935Z,23.45
2019-06-15T08:35:02.923Z,23.34
2019-06-15T08:36:02.914Z,23.05
2019-06-15T08:37:02.909Z,23.07
2019-06-15T08:38:02.898Z,22.97
2019-06-15T08:39:02.882Z,22.78
2019-06-15T08:40:02.894Z,22.64
2019-06-15T08:41:02.864Z,22.32
2019-06-15T08:42:02.860Z,22.16
2019-06-15T08:43:02.862Z,22.12
2019-06-15T08:44:02.834Z,21.97
2019-06-15T08:45:02.824Z,21.99
2019-06-15T08:46:02.814Z,21.79
2019-06-15T08:47:02.811Z,21.74
2019-06-15T08:48:02.796Z,21.66
2019-06-15T08:49:02.787Z,21.63
2019-06-15T08:50:02.774Z,21.57
2019-06-15T08:51:02.764Z,21.63
2019-06-15T08:52:04.326Z,21.74
2019-06-15T08:53:02.763Z,21.61
2019-06-15T08:54:02.750Z,21.60
2019-06-15T08:55:02.743Z,21.60
2019-06-15T08:56:02.713Z,21.59
2019-06-15T08:57:02.701Z,21.50
2019-06-15T08:58:02.701Z,21.56
2019-06-15T08:59:02.682Z,21.51
2019-06-15T09:00:03.117Z,21.54
2019-06-15T09:01:02.669Z,21.57
2019-06-15T09:02:02.647Z,21.60
2019-06-15T09:03:02.636Z,21.69
2019-06-15T09:04:02.634Z,21.64
2019-06-15T09:05:02.636Z,21.75
2019-06-15T09:06:02.614Z,21.74
2019-06-15T09:07:02.593Z,21.78
2019-06-15T09:08:02.586Z,22.06
2019-06-15T09:09:02.581Z,22.20
2019-06-15T09:10:02.561Z,22.67
2019-06-15T09:11:02.553Z,23.04
2019-06-15T09:12:02.544Z,23.47
2019-06-15T09:13:02.526Z,23.32
2019-06-15T09:14:02.518Z,23.12
2019-06-15T09:15:02.507Z,23.11
2019-06-15T09:16:02.516Z,23.24
2019-06-15T09:17:02.608Z,24.02
2019-06-15T09:18:02.482Z,24.45
2019-06-15T09:19:02.475Z,24.95
2019-06-15T09:20:02.457Z,25.61
2019-06-15T09:21:02.475Z,24.82
2019-06-15T09:22:02.443Z,24.60
2019-06-15T09:23:02.435Z,24.49
2019-06-15T09:24:02.418Z,24.82
2019-06-15T09:25:02.409Z,25.06
2019-06-15T09:26:02.405Z,25.22
2019-06-15T09:27:02.396Z,25.90
2019-06-15T09:28:02.392Z,25.75
2019-06-15T09:29:10.820Z,25.80
2019-06-15T09:30:02.381Z,25.67
2019-06-15T09:31:02.357Z,25.53
2019-06-15T09:32:02.341Z,25.07
2019-06-15T09:33:02.336Z,24.71
2019-06-15T09:34:15.525Z,24.26
2019-06-15T09:35:02.323Z,23.98
2019-06-15T09:36:02.416Z,23.76
2019-06-15T09:37:02.300Z,23.52
2019-06-15T09:38:02.291Z,23.08
2019-06-15T09:39:02.290Z,22.94
2019-06-15T09:40:02.273Z,22.67
2019-06-15T09:41:02.309Z,22.67
2019-06-15T09:42:02.263Z,22.54
2019-06-15T09:43:02.257Z,22.54
2019-06-15T09:44:02.237Z,22.39
2019-06-15T09:45:02.233Z,22.34
2019-06-15T09:46:02.226Z,22.34
2019-06-15T09:47:02.212Z,22.19
2019-06-15T09:48:02.210Z,22.32
2019-06-15T09:49:02.196Z,22.46
2019-06-15T09:50:02.183Z,22.53
2019-06-15T09:51:02.184Z,22.52
2019-06-15T09:52:02.167Z,22.57
2019-06-15T09:53:02.161Z,22.82
2019-06-15T09:54:02.154Z,22.57
2019-06-15T09:55:02.145Z,22.46
2019-06-15T09:56:02.158Z,22.34
2019-06-15T09:57:02.120Z,22.43
2019-06-15T09:58:02.111Z,22.37
2019-06-15T09:59:02.095Z,22.47
2019-06-15T10:00:02.305Z,22.57
2019-06-15T10:01:02.077Z,22.71
2019-06-15T10:02:02.070Z,22.84
2019-06-15T10:03:02.079Z,22.84
2019-06-15T10:04:02.045Z,23.01
2019-06-15T10:05:02.042Z,22.89
2019-06-15T10:06:02.048Z,22.60
2019-06-15T10:07:02.029Z,22.46
2019-06-15T10:08:02.007Z,22.35
2019-06-15T10:09:01.998Z,22.31
2019-06-15T10:10:01.994Z,22.20
2019-06-15T10:11:01.979Z,22.17
2019-06-15T10:12:02.007Z,21.99
2019-06-15T10:13:01.955Z,21.90
2019-06-15T10:14:01.946Z,21.98
2019-06-15T10:15:01.940Z,22.09
2019-06-15T10:16:01.957Z,22.04
2019-06-15T10:17:01.924Z,22.22
2019-06-15T10:18:01.909Z,22.53
2019-06-15T10:19:01.894Z,22.74
2019-06-15T10:20:01.980Z,23.14
2019-06-15T10:21:01.881Z,23.43
2019-06-15T10:22:01.872Z,23.50
2019-06-15T10:23:01.856Z,23.29
2019-06-15T10:24:01.847Z,23.47
2019-06-15T10:25:02.027Z,23.77
2019-06-15T10:26:01.827Z,24.07
2019-06-15T10:27:01.827Z,24.24
2019-06-15T10:28:01.814Z,24.22
2019-06-15T10:29:01.805Z,24.24
2019-06-15T10:30:01.805Z,24.77
2019-06-15T10:31:01.788Z,25.25
2019-06-15T10:32:01.774Z,25.37
2019-06-15T10:33:01.764Z,24.94
2019-06-15T10:34:01.756Z,24.85
2019-06-15T10:35:01.802Z,24.95
2019-06-15T10:36:01.740Z,25.05
2019-06-15T10:37:01.754Z,25.09
2019-06-15T10:38:01.789Z,25.15
2019-06-15T10:39:01.722Z,25.20
2019-06-15T10:40:01.787Z,25.13
2019-06-15T10:41:01.712Z,25.43
2019-06-15T10:42:01.707Z,25.50
2019-06-15T10:43:01.737Z,25.52
2019-06-15T10:44:01.718Z,25.50
2019-06-15T10:45:01.684Z,25.47
2019-06-15T10:46:01.681Z,25.61
2019-06-15T10:47:01.670Z,25.72
2019-06-15T10:48:01.667Z,25.62
2019-06-15T10:49:01.660Z,25.91
2019-06-15T10:50:01.687Z,26.09
2019-06-15T10:51:01.664Z,26.20
2019-06-15T10:52:01.644Z,25.86
2019-06-15T10:53:01.634Z,25.24
2019-06-15T10:54:01.625Z,24.85
2019-06-15T10:55:01.628Z,24.73
2019-06-15T10:56:01.625Z,24.50
2019-06-15T10:57:01.610Z,24.34
2019-06-15T10:58:01.603Z,24.19
2019-06-15T10:59:01.596Z,24.26
2019-06-15T11:00:01.618Z,24.10
2019-06-15T11:01:01.690Z,24.07
2019-06-15T11:02:01.590Z,24.00
2019-06-15T11:03:01.611Z,24.08
2019-06-15T11:04:01.567Z,23.94
2019-06-15T11:05:01.565Z,23.83
2019-06-15T11:06:01.558Z,23.75
2019-06-15T11:07:01.545Z,23.65
2019-06-15T11:08:01.537Z,23.43
2019-06-15T11:09:01.533Z,23.29
2019-06-15T11:10:01.523Z,23.39
2019-06-15T11:11:01.527Z,23.58
2019-06-15T11:12:01.529Z,24.07
2019-06-15T11:13:01.528Z,23.94
2019-06-15T11:14:01.490Z,23.80
2019-06-15T11:15:01.491Z,23.75
2019-06-15T11:16:01.483Z,23.67
2019-06-15T11:17:01.465Z,23.71
2019-06-15T11:18:01.472Z,23.71
2019-06-15T11:19:01.514Z,23.82
2019-06-15T11:20:01.449Z,24.24
2019-06-15T11:21:01.441Z,24.08
2019-06-15T11:22:01.446Z,23.83
2019-06-15T11:23:01.427Z,23.86
2019-06-15T11:24:01.411Z,24.68
2019-06-15T11:25:01.407Z,24.87
2019-06-15T11:26:01.404Z,24.61
2019-06-15T11:27:01.396Z,24.90
2019-06-15T11:28:01.391Z,25.19
2019-06-15T11:29:01.396Z,25.38
2019-06-15T11:30:12.940Z,25.50
2019-06-15T11:31:01.369Z,25.79
2019-06-15T11:32:01.399Z,26.20
2019-06-15T11:33:01.356Z,26.46
2019-06-15T11:34:01.350Z,26.54
2019-06-15T11:35:01.616Z,26.32
2019-06-15T11:36:01.343Z,26.29
2019-06-15T11:37:01.350Z,26.29
2019-06-15T11:38:01.338Z,26.37
2019-06-15T11:39:01.338Z,26.27
2019-06-15T11:40:01.359Z,26.44
2019-06-15T11:41:01.331Z,26.40
2019-06-15T11:42:01.337Z,26.67
2019-06-15T11:43:01.331Z,26.94
2019-06-15T11:44:01.326Z,26.59
2019-06-15T11:45:01.329Z,26.35
2019-06-15T11:46:01.329Z,25.93
2019-06-15T11:47:01.323Z,25.74
2019-06-15T11:48:01.326Z,25.86
2019-06-15T11:49:01.327Z,25.86
2019-06-15T11:50:01.397Z,26.28
2019-06-15T11:51:01.320Z,26.27
2019-06-15T11:52:01.318Z,26.06
2019-06-15T11:53:01.314Z,25.75
2019-06-15T11:54:01.314Z,26.37
2019-06-15T11:55:01.312Z,26.08
2019-06-15T11:56:01.318Z,25.64
2019-06-15T11:57:01.314Z,25.10
2019-06-15T11:58:01.313Z,24.94
2019-06-15T11:59:01.301Z,24.90
2019-06-15T12:00:01.305Z,24.88
2019-06-15T12:01:01.298Z,24.80
2019-06-15T12:02:01.301Z,24.64
2019-06-15T12:03:01.294Z,24.61
2019-06-15T12:04:01.289Z,24.68
2019-06-15T12:05:01.283Z,24.63
2019-06-15T12:06:01.272Z,24.98
2019-06-15T12:07:01.276Z,26.04
2019-06-15T12:08:01.268Z,26.57
2019-06-15T12:09:01.267Z,26.55
2019-06-15T12:10:01.260Z,26.40
2019-06-15T12:11:01.250Z,26.18
2019-06-15T12:12:01.272Z,25.79
2019-06-15T12:13:01.240Z,25.57
2019-06-15T12:14:01.244Z,25.46
2019-06-15T12:15:01.240Z,25.59
2019-06-15T12:16:01.253Z,25.34
2019-06-15T12:17:01.221Z,25.65
2019-06-15T12:18:01.218Z,25.43
2019-06-15T12:19:01.217Z,25.47
2019-06-15T12:20:01.208Z,25.49
2019-06-15T12:21:01.211Z,25.43
2019-06-15T12:22:01.199Z,25.32
2019-06-15T12:23:01.193Z,25.17
2019-06-15T12:24:01.198Z,25.02
2019-06-15T12:25:01.191Z,25.00
2019-06-15T12:26:01.183Z,24.92
2019-06-15T12:27:01.171Z,24.98
2019-06-15T12:28:01.174Z,25.07
2019-06-15T12:29:01.161Z,25.01
2019-06-15T12:30:01.161Z,25.46
2019-06-15T12:31:01.155Z,25.94
2019-06-15T12:32:01.153Z,26.08
2019-06-15T12:33:01.138Z,26.50
2019-06-15T12:34:01.135Z,26.79
2019-06-15T12:35:01.156Z,26.89
2019-06-15T12:36:01.126Z,27.28
2019-06-15T12:37:01.123Z,27.46
2019-06-15T12:38:01.126Z,27.62
2019-06-15T12:39:01.123Z,27.35
2019-06-15T12:40:01.114Z,26.87
2019-06-15T12:41:01.114Z,26.32
2019-06-15T12:42:01.110Z,25.93
2019-06-15T12:43:01.115Z,26.05
2019-06-15T12:44:01.127Z,26.31
2019-06-15T12:45:01.129Z,26.44
2019-06-15T12:46:01.105Z,26.80
2019-06-15T12:47:01.105Z,26.64
2019-06-15T12:48:01.103Z,26.22
2019-06-15T12:49:01.099Z,25.77
2019-06-15T12:50:01.095Z,25.62
2019-06-15T12:51:01.094Z,26.18
2019-06-15T12:52:01.093Z,26.87